sensor_id;sensor_type;location;lat;lon;timestamp;pressure;altitude;pressure_sealevel;temperature;humidity
84734;BME280;74957;48.082;17.260;2024-01-06T00:00:53;990.66;;;3.556;99.994
84734;BME280;74957;48.082;17.260;2024-01-06T00:05:55;990.512;;;3.617;99.994
84734;BME280;74957;48.082;17.260;2024-01-06T00:10:56;990.457;;;3.617;99.994
84734;BME280;74957;48.082;17.260;2024-01-06T00:15:52;990.515;;;3.707;99.994
84734;BME280;74957;48.082;17.260;2024-01-06T00:20:52;990.317;;;3.737;99.994
84734;BME280;74957;48.082;17.260;2024-01-06T00:25:56;990.274;;;3.778;99.994
84734;BME280;74957;48.082;17.260;2024-01-06T00:30:56;990.369;;;3.858;99.994
84734;BME280;74957;48.082;17.260;2024-01-06T00:35:55;990.334;;;3.838;99.994
84734;BME280;74957;48.082;17.260;2024-01-06T00:40:58;990.262;;;3.889;99.994
84734;BME280;74957;48.082;17.260;2024-01-06T00:45:52;990.2;;;3.899;99.994
84734;BME280;74957;48.082;17.260;2024-01-06T00:50:54;990.113;;;3.889;99.994
84734;BME280;74957;48.082;17.260;2024-01-06T00:55:51;990.147;;;3.889;99.994
84734;BME280;74957;48.082;17.260;2024-01-06T01:00:54;990.076;;;3.919;99.994
84734;BME280;74957;48.082;17.260;2024-01-06T01:05:56;990.305;;;3.939;99.994
84734;BME280;74957;48.082;17.260;2024-01-06T01:10:54;990.345;;;3.959;99.994
84734;BME280;74957;48.082;17.260;2024-01-06T01:15:54;990.353;;;4.04;99.994
84734;BME280;74957;48.082;17.260;2024-01-06T01:20:52;990.346;;;4.04;99.994
84734;BME280;74957;48.082;17.260;2024-01-06T01:25:56;990.291;;;4.05;99.994
84734;BME280;74957;48.082;17.260;2024-01-06T01:30:55;990.399;;;4.08;99.994
84734;BME280;74957;48.082;17.260;2024-01-06T01:35:57;990.491;;;4.12;99.994
84734;BME280;74957;48.082;17.260;2024-01-06T01:40:55;990.242;;;4.12;99.994
84734;BME280;74957;48.082;17.260;2024-01-06T01:45:56;990.327;;;4.11;99.994
84734;BME280;74957;48.082;17.260;2024-01-06T01:50:56;990.282;;;4.181;99.994
84734;BME280;74957;48.082;17.260;2024-01-06T01:55:59;990.051;;;4.221;99.994
84734;BME280;74957;48.082;17.260;2024-01-06T02:00:57;990.357;;;4.251;99.994
84734;BME280;74957;48.082;17.260;2024-01-06T02:05:55;990.102;;;4.261;99.994
84734;BME280;74957;48.082;17.260;2024-01-06T02:10:55;990.197;;;4.271;99.994
84734;BME280;74957;48.082;17.260;2024-01-06T02:15:54;990.112;;;4.291;99.994
84734;BME280;74957;48.082;17.260;2024-01-06T02:20:56;990.159;;;4.271;99.994
84734;BME280;74957;48.082;17.260;2024-01-06T02:25:55;990.033;;;4.301;99.994
84734;BME280;74957;48.082;17.260;2024-01-06T02:30:58;990.17;;;4.291;99.994
84734;BME280;74957;48.082;17.260;2024-01-06T02:35:57;989.938;;;4.251;99.994
84734;BME280;74957;48.082;17.260;2024-01-06T02:40:52;989.778;;;4.201;99.994
84734;BME280;74957;48.082;17.260;2024-01-06T02:45:54;989.632;;;4.181;99.994
84734;BME280;74957;48.082;17.260;2024-01-06T02:50:58;989.722;;;4.221;99.994
84734;BME280;74957;48.082;17.260;2024-01-06T02:55:57;989.713;;;4.251;99.994
84734;BME280;74957;48.082;17.260;2024-01-06T03:00:58;989.68;;;4.261;99.994
84734;BME280;74957;48.082;17.260;2024-01-06T03:05:54;989.731;;;4.261;99.994
84734;BME280;74957;48.082;17.260;2024-01-06T03:10:55;989.544;;;4.271;99.994
84734;BME280;74957;48.082;17.260;2024-01-06T03:15:55;989.448;;;4.332;99.994
84734;BME280;74957;48.082;17.260;2024-01-06T03:20:56;989.466;;;4.332;99.994
84734;BME280;74957;48.082;17.260;2024-01-06T03:25:55;989.558;;;4.432;99.994
84734;BME280;74957;48.082;17.260;2024-01-06T03:30:57;989.732;;;4.402;99.994
84734;BME280;74957;48.082;17.260;2024-01-06T03:35:53;989.623;;;4.372;99.994
84734;BME280;74957;48.082;17.260;2024-01-06T03:40:56;989.429;;;4.453;99.994
84734;BME280;74957;48.082;17.260;2024-01-06T03:45:58;989.555;;;4.442;99.994
84734;BME280;74957;48.082;17.260;2024-01-06T03:50:55;989.48;;;4.503;99.994
84734;BME280;74957;48.082;17.260;2024-01-06T03:55:55;989.393;;;4.473;99.994
84734;BME280;74957;48.082;17.260;2024-01-06T04:00:53;989.382;;;4.503;99.994
84734;BME280;74957;48.082;17.260;2024-01-06T04:05:57;989.553;;;4.533;99.994
84734;BME280;74957;48.082;17.260;2024-01-06T04:10:57;989.438;;;4.553;99.994
84734;BME280;74957;48.082;17.260;2024-01-06T04:15:56;989.258;;;4.553;99.994
84734;BME280;74957;48.082;17.260;2024-01-06T04:20:56;989.438;;;4.583;99.994
84734;BME280;74957;48.082;17.260;2024-01-06T04:25:57;989.426;;;4.553;99.994
84734;BME280;74957;48.082;17.260;2024-01-06T04:30:54;989.599;;;4.553;99.994
84734;BME280;74957;48.082;17.260;2024-01-06T04:35:54;989.539;;;4.634;99.994
84734;BME280;74957;48.082;17.260;2024-01-06T04:40:59;989.715;;;4.634;99.994
84734;BME280;74957;48.082;17.260;2024-01-06T04:45:54;989.705;;;4.684;99.994
84734;BME280;74957;48.082;17.260;2024-01-06T04:50:55;989.742;;;4.724;99.994
84734;BME280;74957;48.082;17.260;2024-01-06T04:55:56;989.689;;;4.745;99.994
84734;BME280;74957;48.082;17.260;2024-01-06T05:00:53;989.776;;;4.684;99.994
84734;BME280;74957;48.082;17.260;2024-01-06T05:05:56;989.787;;;4.765;99.994
84734;BME280;74957;48.082;17.260;2024-01-06T05:11:01;989.801;;;4.765;99.994
84734;BME280;74957;48.082;17.260;2024-01-06T05:15:55;989.605;;;4.765;99.994
84734;BME280;74957;48.082;17.260;2024-01-06T05:20:57;989.902;;;4.805;99.994
84734;BME280;74957;48.082;17.260;2024-01-06T05:25:59;989.922;;;4.815;99.994
84734;BME280;74957;48.082;17.260;2024-01-06T05:30:57;989.891;;;4.845;99.994
84734;BME280;74957;48.082;17.260;2024-01-06T05:35:57;990.232;;;4.845;99.994
84734;BME280;74957;48.082;17.260;2024-01-06T05:40:55;990.3;;;4.896;99.994
84734;BME280;74957;48.082;17.260;2024-01-06T05:45:54;990.404;;;4.875;99.994
84734;BME280;74957;48.082;17.260;2024-01-06T05:50:54;990.275;;;4.906;99.994
84734;BME280;74957;48.082;17.260;2024-01-06T05:55:56;990.217;;;4.986;99.994
84734;BME280;74957;48.082;17.260;2024-01-06T06:00:54;990.379;;;4.896;99.994
84734;BME280;74957;48.082;17.260;2024-01-06T06:05:57;990.183;;;4.845;99.994
84734;BME280;74957;48.082;17.260;2024-01-06T06:10:53;990.344;;;4.875;99.994
84734;BME280;74957;48.082;17.260;2024-01-06T06:15:53;990.185;;;4.926;99.994
84734;BME280;74957;48.082;17.260;2024-01-06T06:20:54;989.983;;;4.875;99.994
84734;BME280;74957;48.082;17.260;2024-01-06T06:25:54;990.186;;;4.896;99.994
84734;BME280;74957;48.082;17.260;2024-01-06T06:30:53;990.072;;;4.875;99.994
84734;BME280;74957;48.082;17.260;2024-01-06T06:35:53;990.129;;;4.896;99.994
84734;BME280;74957;48.082;17.260;2024-01-06T06:40:52;990.062;;;4.875;99.994
84734;BME280;74957;48.082;17.260;2024-01-06T06:45:52;990.144;;;4.956;99.994
84734;BME280;74957;48.082;17.260;2024-01-06T06:50:55;990.119;;;4.875;99.994
84734;BME280;74957;48.082;17.260;2024-01-06T06:55:53;990.172;;;4.906;99.994
84734;BME280;74957;48.082;17.260;2024-01-06T07:00:58;990.048;;;4.865;99.994
84734;BME280;74957;48.082;17.260;2024-01-06T07:05:58;990.027;;;4.956;99.994
84734;BME280;74957;48.082;17.260;2024-01-06T07:10:55;990.008;;;4.976;99.994
84734;BME280;74957;48.082;17.260;2024-01-06T07:15:57;990.218;;;4.986;99.994
84734;BME280;74957;48.082;17.260;2024-01-06T07:20:56;990.366;;;5.047;99.994
84734;BME280;74957;48.082;17.260;2024-01-06T07:25:55;990.257;;;5.016;99.994
84734;BME280;74957;48.082;17.260;2024-01-06T07:30:55;990.624;;;5.027;99.994
84734;BME280;74957;48.082;17.260;2024-01-06T07:35:57;990.61;;;5.077;99.994
84734;BME280;74957;48.082;17.260;2024-01-06T07:41:03;990.444;;;5.077;99.994
84734;BME280;74957;48.082;17.260;2024-01-06T07:45:58;990.518;;;5.057;99.994
84734;BME280;74957;48.082;17.260;2024-01-06T07:50:59;990.537;;;5.087;99.994
84734;BME280;74957;48.082;17.260;2024-01-06T07:55:57;990.575;;;5.107;99.994
84734;BME280;74957;48.082;17.260;2024-01-06T08:01:02;990.441;;;5.127;99.994
84734;BME280;74957;48.082;17.260;2024-01-06T08:06:01;990.35;;;5.087;99.994
84734;BME280;74957;48.082;17.260;2024-01-06T08:11:00;990.264;;;5.107;99.994
84734;BME280;74957;48.082;17.260;2024-01-06T08:15:57;990.28;;;5.127;99.994
84734;BME280;74957;48.082;17.260;2024-01-06T08:20:58;990.389;;;5.127;99.994
84734;BME280;74957;48.082;17.260;2024-01-06T08:26:02;990.165;;;5.137;99.994
84734;BME280;74957;48.082;17.260;2024-01-06T08:30:58;990.303;;;5.137;99.994
84734;BME280;74957;48.082;17.260;2024-01-06T08:36:01;990.295;;;5.178;99.994
84734;BME280;74957;48.082;17.260;2024-01-06T08:40:58;990.325;;;5.208;99.994
84734;BME280;74957;48.082;17.260;2024-01-06T08:45:57;990.26;;;5.157;99.994
84734;BME280;74957;48.082;17.260;2024-01-06T08:50:58;990.282;;;5.198;99.994
84734;BME280;74957;48.082;17.260;2024-01-06T08:55:55;990.363;;;5.248;99.994
84734;BME280;74957;48.082;17.260;2024-01-06T09:00:56;990.28;;;5.268;99.994
84734;BME280;74957;48.082;17.260;2024-01-06T09:05:58;990.46;;;5.309;99.994
84734;BME280;74957;48.082;17.260;2024-01-06T09:10:59;990.576;;;5.268;99.994
84734;BME280;74957;48.082;17.260;2024-01-06T09:15:57;990.485;;;5.349;99.994
84734;BME280;74957;48.082;17.260;2024-01-06T09:20:59;990.862;;;5.339;99.994
84734;BME280;74957;48.082;17.260;2024-01-06T09:25:58;990.822;;;5.429;99.994
84734;BME280;74957;48.082;17.260;2024-01-06T09:30:57;990.808;;;5.46;99.994
84734;BME280;74957;48.082;17.260;2024-01-06T09:35:57;990.859;;;5.54;99.994
84734;BME280;74957;48.082;17.260;2024-01-06T09:40:55;990.853;;;5.5;99.994
84734;BME280;74957;48.082;17.260;2024-01-06T09:46:00;990.891;;;5.429;99.994
84734;BME280;74957;48.082;17.260;2024-01-06T09:50:59;990.815;;;5.5;99.994
84734;BME280;74957;48.082;17.260;2024-01-06T09:55:58;990.952;;;5.51;99.994
84734;BME280;74957;48.082;17.260;2024-01-06T10:00:55;990.874;;;5.53;99.994
84734;BME280;74957;48.082;17.260;2024-01-06T10:05:58;990.793;;;5.53;99.994
84734;BME280;74957;48.082;17.260;2024-01-06T10:11:00;990.601;;;5.57;99.994
84734;BME280;74957;48.082;17.260;2024-01-06T10:16:07;990.738;;;5.54;99.994
84734;BME280;74957;48.082;17.260;2024-01-06T10:20:58;990.615;;;5.53;99.994
84734;BME280;74957;48.082;17.260;2024-01-06T10:25:57;990.849;;;5.53;99.994
84734;BME280;74957;48.082;17.260;2024-01-06T10:30:56;990.581;;;5.54;99.994
84734;BME280;74957;48.082;17.260;2024-01-06T10:35:56;990.656;;;5.57;99.994
84734;BME280;74957;48.082;17.260;2024-01-06T10:41:00;990.583;;;5.57;99.994
84734;BME280;74957;48.082;17.260;2024-01-06T10:46:01;990.723;;;5.601;99.994
84734;BME280;74957;48.082;17.260;2024-01-06T10:50:58;990.742;;;5.661;99.994
84734;BME280;74957;48.082;17.260;2024-01-06T10:55:54;990.613;;;5.711;99.994
84734;BME280;74957;48.082;17.260;2024-01-06T11:00:59;990.5;;;5.711;99.994
84734;BME280;74957;48.082;17.260;2024-01-06T11:05:59;990.643;;;5.721;99.994
84734;BME280;74957;48.082;17.260;2024-01-06T11:10:58;990.793;;;5.742;99.994
84734;BME280;74957;48.082;17.260;2024-01-06T11:15:56;990.712;;;5.721;99.994
84734;BME280;74957;48.082;17.260;2024-01-06T11:21:21;990.568;;;5.782;99.994
84734;BME280;74957;48.082;17.260;2024-01-06T11:25:56;990.575;;;5.782;99.994
84734;BME280;74957;48.082;17.260;2024-01-06T11:31:08;990.699;;;5.842;99.994
84734;BME280;74957;48.082;17.260;2024-01-06T11:36:07;990.345;;;5.872;99.994
84734;BME280;74957;48.082;17.260;2024-01-06T11:41:01;990.253;;;5.893;99.994
84734;BME280;74957;48.082;17.260;2024-01-06T11:46:01;990.165;;;5.822;99.994
84734;BME280;74957;48.082;17.260;2024-01-06T11:51:00;990.176;;;5.842;99.994
84734;BME280;74957;48.082;17.260;2024-01-06T11:55:59;989.987;;;5.903;99.994
84734;BME280;74957;48.082;17.260;2024-01-06T12:01:03;989.951;;;5.933;99.994
84734;BME280;74957;48.082;17.260;2024-01-06T12:06:02;989.919;;;5.903;99.994
84734;BME280;74957;48.082;17.260;2024-01-06T12:11:05;989.965;;;5.973;99.994
84734;BME280;74957;48.082;17.260;2024-01-06T12:16:02;989.959;;;5.973;99.994
84734;BME280;74957;48.082;17.260;2024-01-06T12:20:59;990.104;;;6.034;99.994
84734;BME280;74957;48.082;17.260;2024-01-06T12:26:00;990.08;;;6.024;99.994
84734;BME280;74957;48.082;17.260;2024-01-06T12:30:56;990.049;;;6.074;99.994
84734;BME280;74957;48.082;17.260;2024-01-06T12:35:58;990.086;;;6.034;99.994
84734;BME280;74957;48.082;17.260;2024-01-06T12:40:59;990.05;;;6.114;99.994
84734;BME280;74957;48.082;17.260;2024-01-06T12:45:55;990.122;;;6.134;99.994
84734;BME280;74957;48.082;17.260;2024-01-06T12:50:57;990.235;;;6.114;99.994
84734;BME280;74957;48.082;17.260;2024-01-06T12:55:57;990.042;;;6.134;99.994
84734;BME280;74957;48.082;17.260;2024-01-06T13:00:55;990.183;;;6.144;99.994
84734;BME280;74957;48.082;17.260;2024-01-06T13:06:01;990.167;;;6.185;99.994
84734;BME280;74957;48.082;17.260;2024-01-06T13:10:59;990.154;;;6.235;99.994
84734;BME280;74957;48.082;17.260;2024-01-06T13:15:56;990.06;;;6.235;99.994
84734;BME280;74957;48.082;17.260;2024-01-06T13:20:55;990.181;;;5.893;99.994
84734;BME280;74957;48.082;17.260;2024-01-06T13:25:56;990.144;;;5.822;99.994
84734;BME280;74957;48.082;17.260;2024-01-06T13:30:56;990.046;;;5.631;99.994
84734;BME280;74957;48.082;17.260;2024-01-06T13:35:58;989.952;;;5.57;99.994
84734;BME280;74957;48.082;17.260;2024-01-06T13:40:56;990.073;;;5.53;99.994
84734;BME280;74957;48.082;17.260;2024-01-06T13:45:55;990.058;;;5.5;99.994
84734;BME280;74957;48.082;17.260;2024-01-06T13:50:58;990.267;;;5.45;99.994
84734;BME280;74957;48.082;17.260;2024-01-06T13:55:56;990.128;;;5.5;99.994
84734;BME280;74957;48.082;17.260;2024-01-06T14:00:59;990.079;;;5.5;99.994
84734;BME280;74957;48.082;17.260;2024-01-06T14:05:59;990.019;;;5.46;99.994
84734;BME280;74957;48.082;17.260;2024-01-06T14:10:56;990.082;;;5.51;99.994
84734;BME280;74957;48.082;17.260;2024-01-06T14:16:03;990.069;;;5.56;99.994
84734;BME280;74957;48.082;17.260;2024-01-06T14:20:56;990.161;;;5.631;99.994
84734;BME280;74957;48.082;17.260;2024-01-06T14:25:59;990.084;;;5.611;99.994
84734;BME280;74957;48.082;17.260;2024-01-06T14:30:55;990.238;;;5.56;99.994
84734;BME280;74957;48.082;17.260;2024-01-06T14:36:00;990.168;;;5.591;99.994
84734;BME280;74957;48.082;17.260;2024-01-06T14:40:58;990.15;;;5.57;99.994
84734;BME280;74957;48.082;17.260;2024-01-06T14:45:57;990.296;;;5.601;99.994
84734;BME280;74957;48.082;17.260;2024-01-06T14:50:57;990.176;;;5.54;99.994
84734;BME280;74957;48.082;17.260;2024-01-06T14:55:56;990.248;;;5.591;99.994
84734;BME280;74957;48.082;17.260;2024-01-06T15:00:59;990.204;;;5.54;99.994
84734;BME280;74957;48.082;17.260;2024-01-06T15:05:56;990.098;;;5.46;99.994
84734;BME280;74957;48.082;17.260;2024-01-06T15:10:57;990.271;;;5.46;99.994
84734;BME280;74957;48.082;17.260;2024-01-06T15:15:54;990.287;;;5.46;99.994
84734;BME280;74957;48.082;17.260;2024-01-06T15:20:58;990.15;;;5.45;99.994
84734;BME280;74957;48.082;17.260;2024-01-06T15:25:58;990.197;;;5.379;99.994
84734;BME280;74957;48.082;17.260;2024-01-06T15:30:54;990.111;;;5.339;99.994
84734;BME280;74957;48.082;17.260;2024-01-06T15:35:57;990.12;;;5.309;99.994
84734;BME280;74957;48.082;17.260;2024-01-06T15:41:02;990.054;;;5.319;99.994
84734;BME280;74957;48.082;17.260;2024-01-06T15:45:55;990.102;;;5.278;99.994
84734;BME280;74957;48.082;17.260;2024-01-06T15:50:55;989.961;;;5.208;99.994
84734;BME280;74957;48.082;17.260;2024-01-06T15:55:54;989.976;;;5.238;99.994
84734;BME280;74957;48.082;17.260;2024-01-06T16:00:55;989.924;;;5.278;99.994
84734;BME280;74957;48.082;17.260;2024-01-06T16:06:02;990.095;;;5.309;99.994
84734;BME280;74957;48.082;17.260;2024-01-06T16:10:57;989.759;;;5.339;99.994
84734;BME280;74957;48.082;17.260;2024-01-06T16:15:57;989.995;;;5.319;99.994
84734;BME280;74957;48.082;17.260;2024-01-06T16:20:53;989.97;;;5.409;99.994
84734;BME280;74957;48.082;17.260;2024-01-06T16:25:59;989.834;;;5.389;99.994
84734;BME280;74957;48.082;17.260;2024-01-06T16:30:57;989.737;;;5.409;99.994
84734;BME280;74957;48.082;17.260;2024-01-06T16:35:53;990.044;;;5.409;99.994
84734;BME280;74957;48.082;17.260;2024-01-06T16:40:56;989.833;;;5.429;99.994
84734;BME280;74957;48.082;17.260;2024-01-06T16:45:54;989.792;;;5.49;99.994
84734;BME280;74957;48.082;17.260;2024-01-06T16:50:53;989.815;;;5.45;99.994
84734;BME280;74957;48.082;17.260;2024-01-06T16:55:53;989.687;;;5.46;99.994
84734;BME280;74957;48.082;17.260;2024-01-06T17:00:59;989.734;;;5.45;99.994
84734;BME280;74957;48.082;17.260;2024-01-06T17:05:57;989.606;;;5.5;99.994
84734;BME280;74957;48.082;17.260;2024-01-06T17:10:53;989.721;;;5.51;99.994
84734;BME280;74957;48.082;17.260;2024-01-06T17:15:58;989.701;;;5.54;99.994
84734;BME280;74957;48.082;17.260;2024-01-06T17:20:55;989.594;;;5.49;99.994
84734;BME280;74957;48.082;17.260;2024-01-06T17:25:55;989.863;;;5.5;99.994
84734;BME280;74957;48.082;17.260;2024-01-06T17:30:54;989.777;;;5.54;99.994
84734;BME280;74957;48.082;17.260;2024-01-06T17:35:58;989.779;;;5.54;99.994
84734;BME280;74957;48.082;17.260;2024-01-06T17:40:55;989.752;;;5.591;99.994
84734;BME280;74957;48.082;17.260;2024-01-06T17:45:55;989.716;;;5.53;99.994
84734;BME280;74957;48.082;17.260;2024-01-06T17:50:55;989.688;;;5.57;99.994
84734;BME280;74957;48.082;17.260;2024-01-06T17:55:55;989.652;;;5.49;99.994
84734;BME280;74957;48.082;17.260;2024-01-06T18:00:53;989.659;;;5.46;99.994
84734;BME280;74957;48.082;17.260;2024-01-06T18:11:00;989.769;;;5.5;99.994
84734;BME280;74957;48.082;17.260;2024-01-06T18:15:56;989.723;;;5.54;99.994
84734;BME280;74957;48.082;17.260;2024-01-06T18:20:56;989.701;;;5.54;99.994
84734;BME280;74957;48.082;17.260;2024-01-06T18:26:01;989.773;;;5.57;99.994
84734;BME280;74957;48.082;17.260;2024-01-06T18:30:58;989.834;;;5.56;99.994
84734;BME280;74957;48.082;17.260;2024-01-06T18:35:57;989.647;;;5.56;99.994
84734;BME280;74957;48.082;17.260;2024-01-06T18:40:56;989.658;;;5.57;99.994
84734;BME280;74957;48.082;17.260;2024-01-06T18:45:55;989.743;;;5.591;99.994
84734;BME280;74957;48.082;17.260;2024-01-06T18:51:00;989.511;;;5.57;99.994
84734;BME280;74957;48.082;17.260;2024-01-06T18:55:59;989.669;;;5.601;99.994
84734;BME280;74957;48.082;17.260;2024-01-06T19:00:58;989.743;;;5.601;99.994
84734;BME280;74957;48.082;17.260;2024-01-06T19:05:56;989.607;;;5.611;99.994
84734;BME280;74957;48.082;17.260;2024-01-06T19:10:56;989.594;;;5.691;99.994
84734;BME280;74957;48.082;17.260;2024-01-06T19:15:57;989.46;;;5.631;99.994
84734;BME280;74957;48.082;17.260;2024-01-06T19:20:56;989.458;;;5.641;99.994
84734;BME280;74957;48.082;17.260;2024-01-06T19:25:53;989.529;;;5.661;99.994
84734;BME280;74957;48.082;17.260;2024-01-06T19:30:59;989.42;;;5.661;99.994
84734;BME280;74957;48.082;17.260;2024-01-06T19:35:53;989.595;;;5.721;99.994
84734;BME280;74957;48.082;17.260;2024-01-06T19:40:55;989.408;;;5.711;99.994
84734;BME280;74957;48.082;17.260;2024-01-06T19:45:54;989.44;;;5.772;99.994
84734;BME280;74957;48.082;17.260;2024-01-06T19:50:53;989.415;;;5.772;99.994
84734;BME280;74957;48.082;17.260;2024-01-06T19:55:56;989.467;;;5.792;99.994
84734;BME280;74957;48.082;17.260;2024-01-06T20:00:55;989.543;;;5.842;99.994
84734;BME280;74957;48.082;17.260;2024-01-06T20:05:55;989.234;;;5.903;99.994
84734;BME280;74957;48.082;17.260;2024-01-06T20:10:54;989.285;;;5.842;99.994
84734;BME280;74957;48.082;17.260;2024-01-06T20:15:54;989.096;;;5.812;99.994
84734;BME280;74957;48.082;17.260;2024-01-06T20:20:53;989.209;;;5.812;99.994
84734;BME280;74957;48.082;17.260;2024-01-06T20:25:54;989.159;;;5.862;99.994
84734;BME280;74957;48.082;17.260;2024-01-06T20:30:55;989.121;;;5.842;99.994
84734;BME280;74957;48.082;17.260;2024-01-06T20:35:55;989.291;;;5.862;99.994
84734;BME280;74957;48.082;17.260;2024-01-06T20:40:54;989.21;;;5.812;99.994
84734;BME280;74957;48.082;17.260;2024-01-06T20:45:52;989.112;;;5.812;99.994
84734;BME280;74957;48.082;17.260;2024-01-06T20:50:55;989.165;;;5.822;99.994
84734;BME280;74957;48.082;17.260;2024-01-06T20:55:54;989.042;;;5.812;99.994
84734;BME280;74957;48.082;17.260;2024-01-06T21:00:54;989.291;;;5.822;99.994
84734;BME280;74957;48.082;17.260;2024-01-06T21:05:55;989.252;;;5.822;99.994
84734;BME280;74957;48.082;17.260;2024-01-06T21:10:55;989.196;;;5.792;99.994
84734;BME280;74957;48.082;17.260;2024-01-06T21:15:56;989.142;;;5.812;99.994
84734;BME280;74957;48.082;17.260;2024-01-06T21:20:53;989.226;;;5.752;99.994
84734;BME280;74957;48.082;17.260;2024-01-06T21:25:57;989.134;;;5.721;99.994
84734;BME280;74957;48.082;17.260;2024-01-06T21:30:54;989.424;;;5.742;99.994
84734;BME280;74957;48.082;17.260;2024-01-06T21:35:56;989.164;;;5.711;99.994
84734;BME280;74957;48.082;17.260;2024-01-06T21:40:52;989.161;;;5.46;99.994
84734;BME280;74957;48.082;17.260;2024-01-06T21:45:53;989.105;;;5.359;99.994
84734;BME280;74957;48.082;17.260;2024-01-06T21:50:53;989.359;;;5.238;99.994
84734;BME280;74957;48.082;17.260;2024-01-06T21:55:52;989.244;;;5.137;99.994
84734;BME280;74957;48.082;17.260;2024-01-06T22:00:57;989.175;;;5.087;99.994
84734;BME280;74957;48.082;17.260;2024-01-06T22:05:54;989.108;;;4.996;99.994
84734;BME280;74957;48.082;17.260;2024-01-06T22:10:55;988.941;;;4.906;99.994
84734;BME280;74957;48.082;17.260;2024-01-06T22:15:56;989.059;;;4.906;99.994
84734;BME280;74957;48.082;17.260;2024-01-06T22:20:54;989.124;;;4.896;99.994
84734;BME280;74957;48.082;17.260;2024-01-06T22:25:53;989.246;;;4.805;99.994
84734;BME280;74957;48.082;17.260;2024-01-06T22:30:55;989.139;;;4.795;99.994
84734;BME280;74957;48.082;17.260;2024-01-06T22:35:56;989.04;;;4.694;99.994
84734;BME280;74957;48.082;17.260;2024-01-06T22:40:54;989.116;;;4.694;99.994
84734;BME280;74957;48.082;17.260;2024-01-06T22:45:53;989.127;;;4.624;99.994
84734;BME280;74957;48.082;17.260;2024-01-06T22:50:55;989.095;;;4.583;99.994
84734;BME280;74957;48.082;17.260;2024-01-06T22:55:52;989.134;;;4.513;99.994
84734;BME280;74957;48.082;17.260;2024-01-06T23:01:18;989.232;;;4.503;99.994
84734;BME280;74957;48.082;17.260;2024-01-06T23:05:52;989.1;;;4.453;99.994
84734;BME280;74957;48.082;17.260;2024-01-06T23:10:59;989.053;;;4.483;99.994
84734;BME280;74957;48.082;17.260;2024-01-06T23:15:57;989.006;;;4.402;99.994
84734;BME280;74957;48.082;17.260;2024-01-06T23:20:55;989.096;;;4.352;99.994
84734;BME280;74957;48.082;17.260;2024-01-06T23:25:56;989.115;;;4.322;99.994
84734;BME280;74957;48.082;17.260;2024-01-06T23:30:56;989.199;;;4.271;99.994
84734;BME280;74957;48.082;17.260;2024-01-06T23:35:55;989.267;;;4.301;99.994
84734;BME280;74957;48.082;17.260;2024-01-06T23:40:54;989.187;;;4.251;99.994
84734;BME280;74957;48.082;17.260;2024-01-06T23:45:55;989.101;;;4.181;99.994
84734;BME280;74957;48.082;17.260;2024-01-06T23:50:52;989.125;;;4.181;99.994
84734;BME280;74957;48.082;17.260;2024-01-06T23:55:55;989.051;;;4.11;99.994
